• Join FlightAware (Why Join?)
  • Login
  • US Flag 
03:49PM EDT


 

Airport Tracker/Info


-or-


 

Live Flight TrackerFlight Track Log ✈ AAL2137 ✈ 08-Apr-2013 ✈ KDFW - MGGT / GUA

Flight Track Log - Related Links

Times and Time Zones

All times are in EDT time to prevent confusion due to time zone crossing. See the AAL2137 flight status page for this flight to view local times or setup timezone preferences in your user account.

Time Position Orientation Groundspeed Altitude Reporting Facility
EDT Latitude Longitude Course Direction KTS MPH feet Rate Location/Type
06:19PM 32.8570 -97.0510 180° South 171 197 2,700  Level FlightAware
06:19PM 32.8340 -97.0520 182° South 193 222 3,300 1,620 Climbing FlightAware
06:20PM 32.8040 -97.0520 180° South 215 247 4,200 1,920 Climbing FlightAware
06:20PM 32.7960 -97.0530 186° South 213 245 4,600 2,400 Climbing FlightAware
06:20PM 32.7640 -97.0530 180° South 223 257 5,800 1,980 Climbing FlightAware
06:21PM 32.7310 -97.0530 180° South 247 284 6,600 1,740 Climbing FlightAware
06:21PM 32.7030 -97.0540 182° South 251 289 7,400 1,800 Climbing FlightAware
06:22PM 32.6670 -97.0550 181° South 267 307 8,300 2,100 Climbing FlightAware
06:22PM 32.6280 -97.0550 180° South 271 312 9,500 2,100 Climbing FlightAware
06:23PM 32.5810 -97.0360 161° South 300 345 10,800 1,500 Climbing FlightAware
06:24PM 32.5290 -96.9970 148° Southeast 340 391 11,500 1,860 Climbing FlightAware
06:24PM 32.4670 -96.9510 148° Southeast 350 403 13,500 2,400 Climbing FlightAware
06:25PM 32.4100 -96.9090 148° Southeast 367 422 14,900 2,160 Climbing FlightAware
06:26PM 32.3540 -96.8670 148° Southeast 382 440 16,400 2,400 Climbing FlightAware
06:27PM 32.2830 -96.8170 149° Southeast 388 447 18,300 2,460 Climbing FlightAware
06:27PM 32.2160 -96.7890 161° South 391 450 19,900 2,280 Climbing FlightAware
06:28PM 32.1493 -96.7639 162° South 400 460 21,200 2,100 Climbing FlightAware ADS-B
06:28PM 32.0805 -96.7378 162° South 407 468 22,500 2,040 Climbing FlightAware ADS-B
06:29PM 32.0198 -96.7146 162° South 409 471 23,700 1,980 Climbing FlightAware ADS-B
06:30PM 31.9550 -96.6901 162° South 416 479 24,800 1,800 Climbing FlightAware ADS-B
06:30PM 31.8991 -96.6689 162° South 420 483 25,700 1,680 Climbing FlightAware ADS-B
06:31PM 31.8335 -96.6430 161° South 427 491 26,700 1,500 Climbing FlightAware ADS-B
06:31PM 31.7757 -96.6189 160° South 431 496 27,400 1,320 Climbing FlightAware ADS-B
06:31PM 31.7674 -96.6154 160° South 435 501 27,500 1,320 Climbing FlightAware ADS-B
06:32PM 31.7086 -96.5912 161° South 440 506 28,200 1,260 Climbing FlightAware ADS-B
06:32PM 31.7065 -96.5903 160° South 440 506 28,200 1,380 Level FlightAware ADS-B
06:32PM 31.6673 -96.5741 161° South 443 510 28,700 1,200 Climbing FlightAware ADS-B
06:32PM 31.6600 -96.5707 158° South 445 512 28,700 1,020 Level FlightAware ADS-B
06:33PM 31.6250 -96.5509 154° Southeast 453 521 29,100 1,500 Climbing FlightAware ADS-B
06:33PM 31.6233 -96.5498 151° Southeast 453 521 29,200 1,560 Climbing FlightAware ADS-B
06:33PM 31.5711 -96.5114 148° Southeast 458 527 29,900 1,380 Climbing FlightAware ADS-B
06:33PM 31.5684 -96.5094 148° Southeast 458 527 29,900 1,500 Level FlightAware ADS-B
06:34PM 31.5143 -96.4693 148° Southeast 456 525 30,700 1,320 Climbing FlightAware ADS-B
06:34PM 31.4589 -96.4292 148° Southeast 458 527 31,300 1,080 Climbing FlightAware ADS-B
06:34PM 31.4570 -96.4278 148° Southeast 458 527 31,300 1,140 Level FlightAware ADS-B
06:35PM 31.4028 -96.3886 148° Southeast 463 533 31,900 1,140 Climbing FlightAware ADS-B
06:35PM 31.4008 -96.3871 147° Southeast 463 533 31,900 1,140 Level FlightAware ADS-B
06:35PM 31.3473 -96.3483 148° Southeast 464 534 32,500 1,320 Climbing FlightAware ADS-B
06:35PM 31.3453 -96.3468 147° Southeast 464 534 32,600 1,380 Climbing FlightAware ADS-B
06:36PM 31.2927 -96.3086 148° Southeast 464 534 33,200 1,200 Climbing FlightAware ADS-B
06:36PM 31.2894 -96.3062 148° Southeast 464 534 33,200 1,200 Level FlightAware ADS-B
06:36PM 31.2376 -96.2687 148° Southeast 464 534 33,800 1,140 Climbing FlightAware ADS-B
06:36PM 31.2331 -96.2654 148° Southeast 464 534 33,800 1,200 Level FlightAware ADS-B
06:37PM 31.1824 -96.2287 148° Southeast 463 533 34,400 1,320 Climbing FlightAware ADS-B
06:37PM 31.1779 -96.2254 148° Southeast 462 532 34,500 1,380 Climbing FlightAware ADS-B
06:37PM 31.1281 -96.1894 148° Southeast 459 528 35,100 1,320 Climbing FlightAware ADS-B
06:37PM 31.1217 -96.1849 149° Southeast 459 528 35,200 1,200 Climbing FlightAware ADS-B
06:38PM 31.0738 -96.1504 148° Southeast 456 525 35,700 1,140 Climbing FlightAware ADS-B
06:38PM 31.0655 -96.1445 149° Southeast 456 525 35,800 960 Climbing FlightAware ADS-B
06:38PM 31.0190 -96.1110 148° Southeast 456 525 36,200 960 Climbing FlightAware ADS-B
06:38PM 31.0089 -96.1038 149° Southeast 456 525 36,300 780 Climbing FlightAware ADS-B
06:39PM 30.9645 -96.0719 148° Southeast 457 526 36,600 780 Climbing FlightAware ADS-B
06:39PM 30.9548 -96.0649 148° Southeast 458 527 36,700 780 Climbing FlightAware ADS-B
06:39PM 30.9104 -96.0330 148° Southeast 456 525 37,000 540 Climbing FlightAware ADS-B
06:39PM 30.8955 -96.0223 148° Southeast 455 524 37,000  Level FlightAware ADS-B
06:40PM 30.8562 -95.9941 148° Southeast 454 522 37,000  Level FlightAware ADS-B
06:40PM 30.8394 -95.9821 148° Southeast 453 521 37,000  Level FlightAware ADS-B
06:40PM 30.8022 -95.9555 148° Southeast 453 521 37,000  Level FlightAware ADS-B
06:40PM 30.7856 -95.9436 148° Southeast 453 521 37,000  Level FlightAware ADS-B
06:41PM 30.7483 -95.9170 148° Southeast 453 521 37,000  Level FlightAware ADS-B
06:41PM 30.7292 -95.9033 148° Southeast 453 521 37,000  Level FlightAware ADS-B
06:41PM 30.6941 -95.8783 149° Southeast 453 521 37,000  Level FlightAware ADS-B
06:41PM 30.6751 -95.8648 149° Southeast 453 521 37,000  Level FlightAware ADS-B
06:42PM 30.6397 -95.8395 148° Southeast 453 521 37,000  Level FlightAware ADS-B
06:42PM 30.6199 -95.8253 148° Southeast 454 522 37,000  Level FlightAware ADS-B
06:42PM 30.5848 -95.8003 148° Southeast 454 522 37,000  Level FlightAware ADS-B
06:42PM 30.5645 -95.7857 148° Southeast 454 522 37,000  Level FlightAware ADS-B
06:43PM 30.5298 -95.7609 148° Southeast 454 522 37,000  Level FlightAware ADS-B
06:43PM 30.5107 -95.7472 148° Southeast 453 521 37,000  Level FlightAware ADS-B
06:43PM 30.4762 -95.7227 149° Southeast 453 521 37,000  Level FlightAware ADS-B
06:43PM 30.4564 -95.7087 149° Southeast 454 522 37,000  Level FlightAware ADS-B
06:44PM 30.4218 -95.6843 149° Southeast 454 522 37,000  Level FlightAware ADS-B
06:44PM 30.4003 -95.6692 149° Southeast 454 522 37,000  Level FlightAware ADS-B
06:44PM 30.3631 -95.6431 149° Southeast 455 524 37,000  Level FlightAware ADS-B
06:44PM 30.3453 -95.6305 149° Southeast 455 524 37,000  Level FlightAware ADS-B
06:45PM 30.3078 -95.6040 149° Southeast 455 524 37,000  Level FlightAware ADS-B
06:45PM 30.2864 -95.5889 149° Southeast 456 525 37,000  Level FlightAware ADS-B
06:45PM 30.2531 -95.5653 149° Southeast 457 526 37,000  Level FlightAware ADS-B
06:45PM 30.2315 -95.5500 149° Southeast 457 526 37,000  Level FlightAware ADS-B
06:46PM 30.1987 -95.5267 148° Southeast 457 526 37,000  Level FlightAware ADS-B
06:46PM 30.1734 -95.5089 149° Southeast 457 526 37,000  Level FlightAware ADS-B
06:46PM 30.1443 -95.4883 149° Southeast 457 526 37,000  Level FlightAware ADS-B
06:47PM 30.1132 -95.4664 149° Southeast 458 527 37,000  Level FlightAware ADS-B
06:47PM 30.0900 -95.4501 149° Southeast 458 527 37,000  Level FlightAware ADS-B
06:47PM 30.0583 -95.4279 149° Southeast 458 527 37,000  Level FlightAware ADS-B
06:47PM 30.0355 -95.4119 149° Southeast 457 526 37,000  Level FlightAware ADS-B
06:48PM 30.0033 -95.3892 149° Southeast 457 526 37,000  Level FlightAware ADS-B
06:48PM 29.9813 -95.3737 149° Southeast 457 526 37,000  Level FlightAware ADS-B
06:48PM 29.9480 -95.3504 149° Southeast 457 526 37,000  Level FlightAware ADS-B
06:48PM 29.9268 -95.3355 149° Southeast 457 526 37,000  Level FlightAware ADS-B
06:49PM 29.8930 -95.3118 149° Southeast 456 525 37,000  Level FlightAware ADS-B
06:49PM 29.8717 -95.2970 149° Southeast 456 525 37,000  Level FlightAware ADS-B
06:49PM 29.8384 -95.2735 149° Southeast 457 526 37,000  Level FlightAware ADS-B
06:49PM 29.8175 -95.2589 149° Southeast 456 525 37,000  Level FlightAware ADS-B
06:50PM 29.7834 -95.2350 149° Southeast 457 526 37,000  Level FlightAware ADS-B
06:50PM 29.7628 -95.2206 149° Southeast 457 526 37,000  Level FlightAware ADS-B
06:50PM 29.7290 -95.1970 149° Southeast 458 527 37,000  Level FlightAware ADS-B
06:50PM 29.7065 -95.1813 149° Southeast 458 527 37,000  Level FlightAware ADS-B
06:51PM 29.6744 -95.1589 149° Southeast 458 527 37,000  Level FlightAware ADS-B
06:51PM 29.6516 -95.1431 149° Southeast 459 528 37,000  Level FlightAware ADS-B
06:51PM 29.6196 -95.1208 149° Southeast 459 528 37,000  Level FlightAware ADS-B
06:51PM 29.5952 -95.1039 149° Southeast 459 528 37,000  Level FlightAware ADS-B
06:52PM 29.5643 -95.0826 149° Southeast 459 528 37,000  Level FlightAware ADS-B
06:52PM 29.5400 -95.0656 149° Southeast 459 528 37,000  Level FlightAware ADS-B
06:52PM 29.5091 -95.0442 149° Southeast 459 528 37,000  Level FlightAware ADS-B
06:52PM 29.4854 -95.0278 149° Southeast 458 527 37,000  Level FlightAware ADS-B
06:53PM 29.4546 -95.0064 149° Southeast 457 526 37,000  Level FlightAware ADS-B
06:53PM 29.4309 -94.9900 149° Southeast 457 526 37,000  Level FlightAware ADS-B
06:53PM 29.4003 -94.9688 149° Southeast 457 526 37,000  Level FlightAware ADS-B
06:53PM 29.3763 -94.9522 149° Southeast 456 525 37,000  Level FlightAware ADS-B
06:54PM 29.3456 -94.9309 149° Southeast 456 525 37,000  Level FlightAware ADS-B
06:54PM 29.3178 -94.9116 149° Southeast 456 525 37,000  Level FlightAware ADS-B
06:54PM 29.2914 -94.8934 149° Southeast 456 525 37,000  Level FlightAware ADS-B
06:54PM 29.2582 -94.8706 149° Southeast 455 524 37,000  Level FlightAware ADS-B
06:55PM 29.2362 -94.8554 149° Southeast 454 522 37,000  Level FlightAware ADS-B
06:55PM 29.2029 -94.8325 149° Southeast 454 522 37,000  Level FlightAware ADS-B
06:55PM 29.1807 -94.8171 149° Southeast 455 524 37,000  Level FlightAware ADS-B
06:56PM 29.1223 -94.7767 149° Southeast 454 522 37,000  Level FlightAware ADS-B
06:56PM 29.1102 -94.7684 149° Southeast 454 522 37,000  Level FlightAware ADS-B
06:56PM 29.0683 -94.7397 149° Southeast 453 521 37,000  Level FlightAware ADS-B
06:56PM 29.0541 -94.7300 149° Southeast 453 521 37,000  Level FlightAware ADS-B
06:57PM 29.0123 -94.7014 149° Southeast 452 520 37,000  Level FlightAware ADS-B
06:57PM 28.9586 -94.6644 149° Southeast 450 518 37,000  Level FlightAware ADS-B
06:58PM 28.9225 -94.6397 149° Southeast 450 518 37,000  Level FlightAware ADS-B
06:58PM 28.9038 -94.6270 149° Southeast 449 517 37,000  Level FlightAware ADS-B
06:58PM 28.8497 -94.5900 149° Southeast 448 516 37,000  Level FlightAware ADS-B
06:59PM 28.7950 -94.5526 149° Southeast 447 514 37,000  Level FlightAware ADS-B
06:59PM 28.7419 -94.5166 149° Southeast 446 513 37,000  Level FlightAware ADS-B
07:00PM 28.6880 -94.4799 149° Southeast 445 512 37,000  Level FlightAware ADS-B
07:00PM 28.6284 -94.4393 149° Southeast 445 512 37,000  Level FlightAware ADS-B
07:01PM 28.5692 -94.3988 149° Southeast 446 513 37,000  Level FlightAware ADS-B
07:01PM 28.5028 -94.3538 149° Southeast 447 514 37,000  Level FlightAware ADS-B
07:02PM 28.4493 -94.3175 149° Southeast 448 516 37,000  Level FlightAware ADS-B
07:02PM 28.3953 -94.2810 149° Southeast 450 518 37,000  Level FlightAware ADS-B
07:03PM 28.3410 -94.2442 149° Southeast 452 520 37,000  Level FlightAware ADS-B
07:03PM 28.2870 -94.2079 149° Southeast 453 521 37,000  Level FlightAware ADS-B
07:04PM 28.2157 -94.1598 149° Southeast 456 525 37,000  Level FlightAware ADS-B
07:05PM 28.1190 -94.0940 149° Southeast 455 524 37,000  Level FlightAware
07:06PM 28.0580 -94.0520 149° Southeast 455 524 37,000  Level FlightAware
07:07PM 27.9960 -94.0100 149° Southeast 455 524 37,000  Level FlightAware
07:07PM 27.9200 -93.9580 149° Southeast 455 524 37,000  Level FlightAware
07:08PM 27.8580 -93.9160 149° Southeast 455 524 37,000  Level FlightAware
07:09PM 27.7970 -93.8750 149° Southeast 455 524 37,000  Level FlightAware
07:09PM 27.7360 -93.8330 149° Southeast 455 524 37,000  Level FlightAware
07:10PM 27.6740 -93.7910 149° Southeast 455 524 37,000  Level FlightAware
07:11PM 27.5980 -93.7390 149° Southeast 455 524 37,000  Level FlightAware
07:12PM 27.5360 -93.6980 150° Southeast 455 524 37,000  Level FlightAware
07:12PM 27.4750 -93.6560 149° Southeast 455 524 37,000  Level FlightAware
07:13PM 27.4140 -93.6150 149° Southeast 455 524 37,000  Level FlightAware
07:14PM 27.3520 -93.5730 149° Southeast 455 524 37,000 1,620 Level FlightAware
07:14PM 27.2269 -93.2372 149° Southeast 478 550 39,000 1,260 Climbing Houston Center
07:15PM 27.1244 -93.1406 140° Southeast 480 552 39,000  Level Houston Center
07:16PM 27.0236 -93.0439 139° Southeast 479 551 39,000 -60 Level Houston Center
07:17PM 26.9164 -92.9483 142° Southeast 478 550 38,900 -120 Descending Houston Center
07:19PM 26.7956 -92.8305 149° Southeast  Level FlightAware Approximate
07:26PM 26.0707 -92.3543 149° Southeast  Level FlightAware Approximate
07:27PM 25.9669 -92.2868 150° Southeast  Level FlightAware Approximate
07:28PM 25.8632 -92.2194 150° Southeast  Level FlightAware Approximate
07:29PM 25.7597 -92.1517 149° Southeast  Level FlightAware Approximate
07:30PM 25.6562 -92.0839 149° Southeast  Level FlightAware Approximate
07:31PM 25.5527 -92.0163 149° Southeast  Level FlightAware Approximate
07:32PM 25.4491 -91.9488 150° Southeast  Level FlightAware Approximate
07:33PM 25.3456 -91.8814 150° Southeast  Level FlightAware Approximate
07:34PM 25.2419 -91.8141 150° Southeast  Level FlightAware Approximate
07:35PM 25.1383 -91.7469 150° Southeast  Level FlightAware Approximate
07:36PM 25.0346 -91.6798 150° Southeast  Level FlightAware Approximate
07:37PM 24.9309 -91.6129 150° Southeast  Level FlightAware Approximate
07:38PM 24.8272 -91.5460 149° Southeast  Level FlightAware Approximate
07:39PM 24.7238 -91.4787 149° Southeast  Level FlightAware Approximate
07:40PM 24.6204 -91.4114 149° Southeast  Level FlightAware Approximate
07:41PM 24.5169 -91.3443 149° Southeast  Level FlightAware Approximate
07:42PM 24.4085 -91.2875 155° Southeast  Level FlightAware Approximate
07:43PM 24.2992 -91.2329 156° South  Level FlightAware Approximate
07:44PM 24.1892 -91.1799 157° South  Level FlightAware Approximate
07:45PM 24.0789 -91.1276 157° South  Level FlightAware Approximate
07:46PM 23.9686 -91.0754 157° South  Level FlightAware Approximate
07:47PM 23.8588 -91.0220 156° South  Level FlightAware Approximate
07:48PM 23.7491 -90.9684 156° South  Level FlightAware Approximate
07:49PM 23.6394 -90.9149 156° South  Level FlightAware Approximate
07:50PM 23.5297 -90.8615 156° South  Level FlightAware Approximate
07:51PM 23.4200 -90.8082 156° South  Level FlightAware Approximate
07:52PM 23.3102 -90.7550 156° South  Level FlightAware Approximate
07:53PM 23.1996 -90.7039 157° South  Level FlightAware Approximate
07:54PM 23.0889 -90.6531 157° South  Level FlightAware Approximate
07:55PM 22.9782 -90.6024 157° South  Level FlightAware Approximate
07:56PM 22.8677 -90.5512 156° South  Level FlightAware Approximate
07:57PM 22.7578 -90.4985 156° South  Level FlightAware Approximate
07:58PM 22.6467 -90.4454 156° South  Level FlightAware Approximate
07:59PM 22.5357 -90.3924 156° South  Level FlightAware Approximate
08:00PM 22.4246 -90.3396 156° South  Level FlightAware Approximate
08:01PM 22.3135 -90.2868 156° South  Level FlightAware Approximate
08:02PM 22.2024 -90.2341 156° South  Level FlightAware Approximate
08:03PM 22.0913 -90.1815 156° South  Level FlightAware Approximate
08:04PM 21.9802 -90.1290 156° South  Level FlightAware Approximate
08:05PM 21.8689 -90.0769 158° South  Level FlightAware Approximate
08:06PM 21.7567 -90.0270 158° South  Level FlightAware Approximate
08:07PM 21.6446 -89.9772 158° South  Level FlightAware Approximate
08:08PM 21.5325 -89.9271 157° South  Level FlightAware Approximate
08:09PM 21.4206 -89.8767 157° South  Level FlightAware Approximate
08:10PM 21.3087 -89.8263 157° South  Level FlightAware Approximate
08:11PM 21.1972 -89.7749 156° South  Level FlightAware Approximate
08:12PM 21.0862 -89.7223 156° South  Level FlightAware Approximate
08:13PM 20.9752 -89.6698 156° South  Level FlightAware Approximate
08:14PM 20.8580 -89.6440 176° South  Level FlightAware Approximate
08:15PM 20.7370 -89.6345 176° South  Level FlightAware Approximate
08:16PM 20.6160 -89.6249 176° South  Level FlightAware Approximate
08:17PM 20.4949 -89.6153 176° South  Level FlightAware Approximate
08:18PM 20.3739 -89.6058 176° South  Level FlightAware Approximate
08:19PM 20.2529 -89.5963 176° South  Level FlightAware Approximate
08:20PM 20.1319 -89.5868 176° South  Level FlightAware Approximate
08:21PM 20.0109 -89.5773 176° South  Level FlightAware Approximate
08:22PM 19.8899 -89.5678 176° South  Level FlightAware Approximate
08:23PM 19.7689 -89.5584 176° South  Level FlightAware Approximate
08:24PM 19.6479 -89.5489 176° South  Level FlightAware Approximate
08:25PM 19.5269 -89.5395 176° South  Level FlightAware Approximate
08:26PM 19.4058 -89.5301 176° South  Level FlightAware Approximate
08:27PM 19.2848 -89.5207 176° South  Level FlightAware Approximate
08:28PM 19.1637 -89.5134 177° South  Level FlightAware Approximate
08:29PM 19.0424 -89.5077 177° South  Level FlightAware Approximate
08:30PM 18.9212 -89.5021 177° South  Level FlightAware Approximate
08:31PM 18.8000 -89.4964 177° South  Level FlightAware Approximate
08:32PM 18.6788 -89.4907 177° South  Level FlightAware Approximate
08:33PM 18.5576 -89.4851 177° South  Level FlightAware Approximate
08:34PM 18.4363 -89.4795 177° South  Level FlightAware Approximate
08:35PM 18.3151 -89.4738 177° South  Level FlightAware Approximate
08:36PM 18.1939 -89.4682 177° South  Level FlightAware Approximate
08:37PM 18.0727 -89.4626 177° South  Level FlightAware Approximate
08:38PM 17.9515 -89.4570 177° South  Level FlightAware Approximate
08:39PM 17.8302 -89.4514 177° South  Level FlightAware Approximate
08:40PM 17.7094 -89.4399 174° South  Level FlightAware Approximate
08:41PM 17.5849 -89.4279 175° South  Level FlightAware Approximate
08:42PM 17.4602 -89.4175 175° South  Level FlightAware Approximate
08:43PM 17.3355 -89.4071 175° South  Level FlightAware Approximate
08:44PM 17.2109 -89.3967 175° South  Level FlightAware Approximate
08:45PM 17.0862 -89.3863 175° South  Level FlightAware Approximate
08:46PM 16.9614 -89.3774 176° South  Level FlightAware Approximate
08:47PM 16.8366 -89.3691 176° South  Level FlightAware Approximate
08:48PM 16.7255 -89.4163 213° Southwest  Level FlightAware Approximate
08:49PM 16.6182 -89.4832 210° Southwest  Level FlightAware Approximate
08:50PM 16.5102 -89.5490 210° Southwest  Level FlightAware Approximate
08:51PM 16.4021 -89.6147 210° Southwest  Level FlightAware Approximate
08:52PM 16.2931 -89.6785 206° Southwest  Level FlightAware Approximate
08:53PM 16.1838 -89.7414 211° Southwest  Level FlightAware Approximate
08:54PM 16.0781 -89.8109 214° Southwest  Level FlightAware Approximate
08:55PM 15.9737 -89.8825 210° Southwest  Level FlightAware Approximate
08:56PM 15.8654 -89.9475 210° Southwest  Level FlightAware Approximate
08:57PM 15.7571 -90.0124 210° Southwest  Level FlightAware Approximate
08:58PM 15.6460 -90.0722 207° Southwest  Level FlightAware Approximate
08:59PM 15.5348 -90.1315 207° Southwest  Level FlightAware Approximate
09:00PM 15.4277 -90.1982 213° Southwest  Level FlightAware Approximate
09:01PM 15.3225 -90.2684 213° Southwest  Level FlightAware Approximate
09:02PM 15.2158 -90.3360 211° Southwest  Level FlightAware Approximate
09:03PM 15.1081 -90.4018 210° Southwest  Level FlightAware Approximate
09:04PM 14.9998 -90.4667 180° South  Level FlightAware Approximate
09:05PM 14.8752 -90.4758 186° South  Level FlightAware Approximate